Time;durP1;ratioP1;P1;durP2;ratioP2;P2;SDS_P1;SDS_P2;PMS_P1;PMS_P2;Temp;Humidity;BMP_temperature;BMP_pressure;BME280_temperature;BME280_humidity;BME280_pressure;Samples;Min_cycle;Max_cycle;Signal;HPM_P1;HPM_P2
2021/12/07 00:01:57;;;;;;;18.70;3.05;;;;;;;16.93;35.33;97079.03;5077100;28;20028;-93
2021/12/07 00:04:24;;;;;;;13.30;2.33;;;;;;;19.55;32.35;97073.91;5074466;28;20105;-93
2021/12/07 00:06:53;;;;;;;7.97;2.13;;;;;;;8.92;56.99;97086.16;5082955;28;20095;-94
2021/12/07 00:09:19;;;;;;;6.57;1.83;;;;;;;9.30;57.14;97085.91;5080310;28;20176;-93
2021/12/07 00:11:47;;;;;;;10.20;2.33;;;;;;;9.75;53.65;97098.34;5079882;28;20455;-93
2021/12/07 00:14:14;;;;;;;15.55;2.60;;;;;;;10.62;53.52;97093.69;5095855;28;20476;-93
2021/12/07 00:16:45;;;;;;;14.13;2.60;;;;;;;9.28;56.01;97103.28;5081160;28;20073;-93
2021/12/07 00:19:12;;;;;;;13.98;2.63;;;;;;;9.69;54.35;97112.41;5082341;28;20122;-93
2021/12/07 00:21:40;;;;;;;11.90;2.67;;;;;;;8.85;57.74;97118.41;5094672;28;20106;-94
2021/12/07 00:24:07;;;;;;;17.05;2.58;;;;;;;9.62;55.99;97099.66;5074667;28;20499;-94
2021/12/07 00:26:32;;;;;;;10.25;2.17;;;;;;;9.51;55.32;97103.44;5083183;28;20026;-93
2021/12/07 00:29:03;;;;;;;11.20;2.45;;;;;;;9.88;54.36;97109.19;5080311;28;20028;-94
2021/12/07 00:31:46;;;;;;;11.38;2.58;;;;;;;9.00;56.78;97117.97;5081404;28;20172;-95
2021/12/07 00:34:22;;;;;;;15.95;2.05;;;;;;;7.86;60.85;97101.09;5077396;28;20040;-93
2021/12/07 00:36:48;;;;;;;11.05;2.25;;;;;;;6.04;65.23;97098.88;5081770;28;20036;-93
2021/12/07 00:39:21;;;;;;;10.23;2.45;;;;;;;6.10;66.70;97101.38;5078528;28;20036;-94
2021/12/07 00:41:48;;;;;;;13.07;2.03;;;;;;;5.26;69.64;97105.28;5082165;28;20062;-94
2021/12/07 00:44:15;;;;;;;23.13;2.25;;;;;;;5.58;70.37;97095.31;5077836;28;20528;-94
2021/12/07 00:46:41;;;;;;;17.20;2.90;;;;;;;6.48;68.13;97094.63;5076945;28;20646;-93
2021/12/07 00:49:07;;;;;;;15.07;3.03;;;;;;;5.73;71.51;97092.47;5074385;28;20044;-93
2021/12/07 00:51:33;;;;;;;13.57;3.85;;;;;;;5.40;72.11;97102.50;5085038;28;20039;-93
2021/12/07 00:53:59;;;;;;;10.75;2.42;;;;;;;6.62;69.05;97091.75;5080908;28;20377;-93
2021/12/07 00:56:25;;;;;;;13.27;2.95;;;;;;;6.59;65.29;97087.50;5081432;28;20036;-93
2021/12/07 00:58:51;;;;;;;12.88;3.17;;;;;;;6.74;67.82;97083.75;5073779;28;20519;-92
2021/12/07 01:01:19;;;;;;;11.70;2.42;;;;;;;5.96;69.86;97080.91;5063818;28;20039;-92
2021/12/07 01:03:45;;;;;;;14.65;3.10;;;;;;;6.96;68.13;97078.13;5063657;28;20036;-94
2021/12/07 01:25:35;;;;;;;14.55;2.55;;;;;;;7.65;65.81;97071.31;5068325;28;20047;-94
2021/12/07 01:28:08;;;;;;;10.93;2.35;;;;;;;6.47;68.59;97077.38;5064011;28;20094;-93
2021/12/07 01:30:51;;;;;;;10.25;2.33;;;;;;;6.45;65.12;97080.00;5065620;28;20036;-93
2021/12/07 01:38:32;;;;;;;15.68;2.88;;;;;;;7.75;64.15;97074.56;5064151;28;20464;-94
2021/12/07 01:52:06;;;;;;;10.10;1.98;;;;;;;6.49;66.85;97063.50;5048514;28;20130;-94
2021/12/07 02:00:10;;;;;;;10.70;2.45;;;;;;;7.33;64.16;97048.75;5044968;28;20043;-93
2021/12/07 02:02:36;;;;;;;14.95;2.40;;;;;;;5.54;69.04;97047.97;5025691;28;20041;-94
2021/12/07 02:05:04;;;;;;;13.15;2.80;;;;;;;5.18;70.44;97049.38;5044836;28;20085;-94
2021/12/07 02:07:30;;;;;;;10.48;2.15;;;;;;;6.83;66.39;97031.75;5043764;28;20051;-95
2021/12/07 02:10:07;;;;;;;10.23;2.20;;;;;;;5.67;71.28;97034.84;5026055;28;20037;-93
2021/12/07 02:12:42;;;;;;;11.20;2.15;;;;;;;4.86;72.21;97033.50;5027091;28;20115;-94
2021/12/07 02:15:10;;;;;;;19.95;2.40;;;;;;;7.66;69.72;97033.25;5024422;28;20079;-93
2021/12/07 02:17:36;;;;;;;8.52;2.30;;;;;;;5.47;70.10;97046.38;5045828;28;20032;-95
2021/12/07 02:20:03;;;;;;;12.63;2.35;;;;;;;6.19;69.19;97041.66;5047393;28;20055;-93
2021/12/07 02:22:29;;;;;;;22.98;2.97;;;;;;;5.03;70.20;97050.50;5054308;28;20590;-94
2021/12/07 02:24:54;;;;;;;11.77;2.17;;;;;;;5.43;69.98;97036.97;5065283;28;20110;-94
2021/12/07 02:27:20;;;;;;;12.23;2.28;;;;;;;5.22;69.79;97053.63;5066191;28;20032;-93
2021/12/07 02:29:46;;;;;;;12.07;2.30;;;;;;;5.82;69.36;97048.34;5066004;28;20032;-93
2021/12/07 02:32:11;;;;;;;15.00;2.30;;;;;;;5.76;67.82;97047.59;5057444;28;20119;-94
2021/12/07 02:34:43;;;;;;;11.70;2.05;;;;;;;5.99;66.91;97049.81;5063569;28;20024;-93
2021/12/07 02:37:09;;;;;;;20.05;2.40;;;;;;;7.46;63.46;97049.31;5061877;28;20115;-95
2021/12/07 02:39:39;;;;;;;12.80;2.35;;;;;;;6.39;64.93;97048.19;5064600;28;20451;-94
2021/12/07 02:42:05;;;;;;;15.65;2.28;;;;;;;6.04;68.02;97054.91;5061846;28;20143;-94
2021/12/07 02:44:32;;;;;;;13.10;2.08;;;;;;;6.57;66.01;97044.38;5066826;28;20113;-93
2021/12/07 02:46:57;;;;;;;11.80;1.98;;;;;;;7.59;65.88;97049.88;5064894;28;20040;-95
2021/12/07 02:49:23;;;;;;;11.63;1.85;;;;;;;6.62;64.43;97066.69;5063831;28;20566;-94
2021/12/07 02:51:48;;;;;;;12.68;2.03;;;;;;;6.71;64.78;97070.84;5062385;28;20522;-95
2021/12/07 02:54:14;;;;;;;15.43;1.98;;;;;;;6.26;64.99;97076.94;5063855;28;20046;-93
2021/12/07 02:56:40;;;;;;;17.67;2.03;;;;;;;6.35;63.70;97085.38;5067294;28;20692;-95
2021/12/07 02:59:05;;;;;;;8.00;1.65;;;;;;;6.64;63.17;97090.00;5060866;28;20053;-93
2021/12/07 03:01:36;;;;;;;13.32;2.15;;;;;;;6.54;65.59;97093.66;5063871;28;20107;-93
2021/12/07 03:04:13;;;;;;;12.73;1.95;;;;;;;6.65;65.09;97096.88;5063611;28;20047;-94
2021/12/07 03:28:06;;;;;;;12.18;1.85;;;;;;;8.61;57.47;97049.81;5062907;28;20040;-95
2021/12/07 03:30:36;;;;;;;10.85;2.00;;;;;;;6.78;60.15;97056.88;5064765;28;20451;-94
2021/12/07 03:33:03;;;;;;;10.88;2.65;;;;;;;7.11;61.18;97072.59;5061647;28;20036;-94
2021/12/07 03:35:32;;;;;;;8.10;1.67;;;;;;;6.93;61.57;97073.84;5062504;28;20115;-95
2021/12/07 03:38:01;;;;;;;11.10;1.67;;;;;;;6.62;60.38;97077.06;5063078;28;20051;-94
2021/12/07 03:40:27;;;;;;;12.25;2.10;;;;;;;11.46;47.70;97075.75;5062941;28;20028;-95
2021/12/07 03:42:52;;;;;;;17.17;2.95;;;;;;;13.80;41.62;97069.00;5067912;28;20447;-95
2021/12/07 03:45:18;;;;;;;7.95;1.67;;;;;;;13.74;41.50;97064.91;5066098;28;20113;-94
2021/12/07 03:51:30;;;;;;;7.68;1.33;;;;;;;5.44;64.89;97105.88;4989382;28;20072;-94
2021/12/07 03:53:56;;;;;;;9.45;1.77;;;;;;;5.69;64.92;97092.56;5063163;28;20028;-95
2021/12/07 03:56:21;;;;;;;6.93;1.52;;;;;;;5.80;65.48;97082.88;5065903;28;20035;-95
2021/12/07 03:58:48;;;;;;;14.32;2.42;;;;;;;13.91;45.32;97057.97;5062594;28;20032;-94
2021/12/07 04:01:14;;;;;;;14.68;2.33;;;;;;;9.44;46.71;97075.91;5064768;28;20082;-95
2021/12/07 04:03:41;;;;;;;13.30;1.95;;;;;;;6.13;62.53;97078.03;5058209;28;20036;-95
2021/12/07 04:06:07;;;;;;;12.48;1.98;;;;;;;6.32;63.70;97069.03;5061873;28;20037;-94
2021/12/07 04:08:36;;;;;;;9.55;1.70;;;;;;;7.91;57.85;97056.84;5058362;28;20090;-95
2021/12/07 04:11:03;;;;;;;12.48;2.08;;;;;;;8.35;55.56;97046.16;5060637;28;20050;-94
2021/12/07 04:13:32;;;;;;;11.35;1.98;;;;;;;6.52;61.93;97048.81;5063109;28;20038;-95
2021/12/07 04:15:59;;;;;;;10.52;1.50;;;;;;;7.18;60.24;97044.75;5063143;28;20036;-95
2021/12/07 04:18:25;;;;;;;7.65;1.40;;;;;;;6.49;62.92;97036.78;5064747;28;20630;-95
2021/12/07 04:20:51;;;;;;;13.20;2.10;;;;;;;6.80;61.84;97025.75;5065505;28;20036;-94
2021/12/07 04:23:17;;;;;;;12.27;1.80;;;;;;;6.56;63.35;97035.75;5062876;28;20029;-95
2021/12/07 04:25:43;;;;;;;12.00;2.00;;;;;;;6.53;64.00;97034.94;5063238;28;20138;-94
2021/12/07 04:28:09;;;;;;;8.35;1.80;;;;;;;6.22;64.56;97027.81;5061021;28;20024;-94
2021/12/07 04:30:43;;;;;;;9.77;2.67;;;;;;;6.97;61.91;97010.69;5062019;28;20037;-94
2021/12/07 04:33:10;;;;;;;12.68;1.58;;;;;;;6.14;64.25;97020.22;5057278;28;20040;-95
2021/12/07 04:35:39;;;;;;;11.45;1.85;;;;;;;6.10;65.35;97034.09;5065102;28;20128;-95
2021/12/07 04:38:05;;;;;;;11.20;1.33;;;;;;;6.71;63.17;97023.34;5066589;28;20020;-96
2021/12/07 04:40:32;;;;;;;9.40;1.50;;;;;;;7.44;61.80;97027.75;5064431;28;20035;-96
2021/12/07 04:43:03;;;;;;;10.07;1.60;;;;;;;8.32;58.74;97015.94;5065190;28;20032;-95
2021/12/07 04:48:32;;;;;;;10.77;1.73;;;;;;;9.53;54.12;97013.16;5069622;28;20135;-95
2021/12/07 04:59:13;;;;;;;8.82;1.50;;;;;;;6.54;63.71;97016.81;5065841;28;20035;-95
2021/12/07 05:01:39;;;;;;;9.68;1.75;;;;;;;6.75;62.92;97018.09;5070266;28;20659;-94
2021/12/07 05:04:12;;;;;;;11.20;1.73;;;;;;;6.61;64.02;97010.63;5063060;28;20033;-94
2021/12/07 05:06:44;;;;;;;11.10;1.67;;;;;;;6.52;63.74;97003.03;5065043;28;20043;-95
2021/12/07 05:14:30;;;;;;;11.85;1.67;;;;;;;6.80;62.24;97008.47;5063605;28;20041;-95
2021/12/07 05:38:24;;;;;;;11.45;1.80;;;;;;;6.26;65.99;96939.72;5059812;28;20027;-94
2021/12/07 05:40:50;;;;;;;11.63;1.50;;;;;;;5.80;66.41;96936.31;5062990;28;20032;-95
2021/12/07 05:43:15;;;;;;;12.07;2.13;;;;;;;5.44;66.99;96937.81;5068183;28;20114;-95
2021/12/07 05:46:09;;;;;;;6.82;1.35;;;;;;;5.85;65.62;96937.94;5067065;28;20099;-96
2021/12/07 05:48:35;;;;;;;13.25;1.88;;;;;;;5.81;64.73;96934.56;5067054;28;20047;-95
2021/12/07 05:51:01;;;;;;;7.15;1.30;;;;;;;5.64;66.91;96930.56;5068553;28;20040;-95
2021/12/07 05:53:26;;;;;;;10.90;1.58;;;;;;;5.79;65.18;96934.59;5060877;28;20036;-94
2021/12/07 05:55:52;;;;;;;9.48;1.50;;;;;;;5.16;67.97;96933.13;5070075;28;20029;-95
2021/12/07 05:58:19;;;;;;;9.15;1.38;;;;;;;6.28;67.75;96919.81;5069190;28;20230;-94
2021/12/07 06:00:46;;;;;;;14.40;1.67;;;;;;;5.44;67.33;96923.19;5065797;28;20061;-94
2021/12/07 06:03:12;;;;;;;13.32;1.60;;;;;;;5.90;66.44;96905.94;5063485;28;20074;-95
2021/12/07 06:05:40;;;;;;;14.20;2.10;;;;;;;6.90;62.96;96907.19;5063609;28;20028;-95
2021/12/07 06:08:07;;;;;;;7.93;1.73;;;;;;;6.81;62.21;96903.94;5064645;28;20103;-95
2021/12/07 06:10:33;;;;;;;10.75;1.70;;;;;;;6.78;62.27;96901.44;5065508;28;20123;-94
2021/12/07 06:12:59;;;;;;;11.20;1.75;;;;;;;7.34;60.83;96897.47;5062488;28;20036;-94
2021/12/07 06:15:28;;;;;;;8.88;1.70;;;;;;;6.53;63.34;96897.69;5065143;28;20024;-95
2021/12/07 06:17:59;;;;;;;9.50;1.98;;;;;;;6.35;64.09;96886.88;5061629;28;20123;-96
2021/12/07 06:20:24;;;;;;;10.55;2.13;;;;;;;6.97;62.67;96880.25;5066567;28;20181;-96
2021/12/07 06:22:50;;;;;;;23.25;2.42;;;;;;;7.19;60.29;96880.56;5063634;28;21174;-96
2021/12/07 06:25:16;;;;;;;9.25;1.63;;;;;;;6.85;61.38;96873.63;5063491;28;20028;-95
2021/12/07 06:27:43;;;;;;;8.07;1.50;;;;;;;6.86;61.09;96869.28;5066580;28;20115;-94
2021/12/07 06:30:10;;;;;;;9.73;1.98;;;;;;;6.47;63.74;96865.91;5061940;28;20553;-95
2021/12/07 06:32:39;;;;;;;8.43;1.73;;;;;;;5.50;65.37;96860.16;5059595;28;20078;-95
2021/12/07 06:35:07;;;;;;;7.20;1.95;;;;;;;5.32;66.53;96853.59;5055045;28;20051;-96
2021/12/07 06:37:32;;;;;;;12.80;2.38;;;;;;;5.06;68.20;96848.91;5063987;28;20043;-95
2021/12/07 06:40:01;;;;;;;8.32;1.95;;;;;;;5.85;65.66;96840.47;5066785;28;20024;-95
2021/12/07 06:42:27;;;;;;;10.73;1.65;;;;;;;6.85;62.14;96829.59;5064142;28;20037;-95
2021/12/07 06:44:53;;;;;;;9.88;2.00;;;;;;;6.39;63.05;96821.19;5064495;28;20043;-94
2021/12/07 06:47:18;;;;;;;11.70;2.25;;;;;;;7.12;61.20;96809.03;5070300;28;20051;-96
2021/12/07 06:49:45;;;;;;;12.48;1.80;;;;;;;6.51;62.46;96804.50;5063948;28;20055;-95
2021/12/07 06:52:12;;;;;;;9.63;1.73;;;;;;;7.07;61.44;96797.91;5061178;28;20062;-94
2021/12/07 06:54:37;;;;;;;8.13;1.95;;;;;;;6.27;63.52;96800.78;5065718;28;20086;-95
2021/12/07 06:57:04;;;;;;;9.00;2.10;;;;;;;5.75;65.45;96790.69;5065087;28;20135;-95
2021/12/07 06:59:29;;;;;;;12.50;2.47;;;;;;;6.12;63.94;96792.50;5061540;28;20028;-94
2021/12/07 07:01:56;;;;;;;13.63;2.72;;;;;;;6.35;63.87;96792.81;5066628;28;20077;-96
2021/12/07 07:04:21;;;;;;;10.98;2.10;;;;;;;6.86;61.43;96784.63;5065279;28;20511;-96
2021/12/07 07:06:51;;;;;;;8.90;2.50;;;;;;;7.70;58.59;96767.66;5062264;28;20032;-95
2021/12/07 07:09:17;;;;;;;12.55;2.92;;;;;;;7.79;57.72;96766.50;5078085;28;20028;-95
2021/12/07 07:11:43;;;;;;;13.13;2.72;;;;;;;6.91;60.21;96762.03;5076844;28;20101;-94
2021/12/07 07:29:46;;;;;;;12.18;3.95;;;;;;;4.96;68.60;96707.00;5218409;23;20062;-96
2021/12/07 07:34:52;;;;;;;13.48;4.45;;;;;;;4.65;68.97;96695.53;5584652;22;20065;-96
2021/12/07 07:37:37;;;;;;;13.60;4.53;;;;;;;4.77;70.13;96693.59;4999555;28;20097;-96
2021/12/07 07:49:44;;;;;;;14.20;4.68;;;;;;;5.11;69.21;96646.41;988950;22;20345;-96
2021/12/07 07:52:10;;;;;;;15.85;4.55;;;;;;;4.92;69.60;96629.59;4985461;28;20053;-96
2021/12/07 07:54:36;;;;;;;15.60;4.60;;;;;;;4.36;71.47;96615.22;4994286;28;20062;-96
2021/12/07 07:57:20;;;;;;;13.55;4.85;;;;;;;4.26;72.91;96600.78;4988268;28;20091;-96
2021/12/07 08:00:15;;;;;;;15.43;4.65;;;;;;;5.70;72.44;96592.53;4975562;28;20027;-96
2021/12/07 08:02:42;;;;;;;14.02;4.65;;;;;;;4.31;73.18;96595.53;4978093;28;20120;-96
2021/12/07 08:05:13;;;;;;;18.60;5.53;;;;;;;4.57;71.71;96598.44;4976342;28;20033;-96
2021/12/07 08:07:47;;;;;;;18.20;5.72;;;;;;;4.80;70.69;96589.38;4974440;28;21302;-96
2021/12/07 08:10:13;;;;;;;;;;;;;;;5.90;67.11;96595.47;4977288;28;20038;-96
2021/12/07 08:12:38;;;;;;;16.30;5.40;;;;;;;5.46;67.84;96587.06;4980587;28;19913;-96
2021/12/07 08:15:05;;;;;;;20.20;6.18;;;;;;;4.60;70.51;96594.97;4991902;28;20554;-96
2021/12/07 08:17:30;;;;;;;15.38;5.13;;;;;;;5.46;67.67;96593.06;4977149;28;20046;-96
2021/12/07 08:19:56;;;;;;;18.15;5.55;;;;;;;5.18;67.41;96584.25;4989951;28;20026;-96
2021/12/07 08:22:22;;;;;;;20.90;5.55;;;;;;;4.15;73.75;96590.66;4991498;28;20479;-95
2021/12/07 08:24:51;;;;;;;17.48;4.82;;;;;;;4.54;73.50;96584.78;4993863;28;20026;-96
2021/12/07 08:27:18;;;;;;;15.98;4.93;;;;;;;5.28;69.94;96565.09;4974132;28;20501;-96
2021/12/07 08:29:44;;;;;;;16.70;4.10;;;;;;;5.97;67.49;96529.78;4980555;28;20022;-96
2021/12/07 08:32:10;;;;;;;13.77;4.55;;;;;;;4.94;69.48;96527.97;4990789;28;20114;-96
2021/12/07 08:34:35;;;;;;;24.27;5.82;;;;;;;4.82;69.61;96517.06;4968702;28;20038;-96
2021/12/07 08:37:01;;;;;;;20.95;5.43;;;;;;;3.93;71.72;96518.00;4977960;28;20473;-96
2021/12/07 08:39:26;;;;;;;15.02;5.07;;;;;;;5.05;71.54;96525.13;4992893;28;20027;-96
2021/12/07 08:41:52;;;;;;;16.25;5.32;;;;;;;5.12;70.33;96507.72;4995142;28;20039;-96
2021/12/07 08:44:17;;;;;;;17.15;6.00;;;;;;;4.40;71.83;96512.78;4994661;28;20042;-96
2021/12/07 08:46:43;;;;;;;16.30;6.53;;;;;;;3.99;73.73;96507.56;4992088;28;20470;-96
2021/12/07 08:49:15;;;;;;;19.20;6.65;;;;;;;4.49;72.47;96512.56;4981195;28;20032;-96
2021/12/07 08:51:43;;;;;;;22.48;5.05;;;;;;;4.51;73.46;96509.97;4973576;28;20075;-95
2021/12/07 08:59:54;;;;;;;16.17;4.63;;;;;;;4.13;74.18;96503.88;4917030;29;20099;-96
2021/12/07 09:02:25;;;;;;;18.85;4.82;;;;;;;4.31;73.67;96487.16;4902245;29;20182;-96
2021/12/07 09:04:53;;;;;;;18.55;4.85;;;;;;;5.75;69.80;96480.31;4914869;29;20040;-96
2021/12/07 09:07:19;;;;;;;17.58;4.72;;;;;;;4.41;72.54;96462.84;4903078;29;20111;-96
2021/12/07 09:09:46;;;;;;;13.52;3.55;;;;;;;6.12;65.96;96440.53;4924116;29;20107;-96
2021/12/07 09:12:31;;;;;;;13.07;3.85;;;;;;;6.05;65.95;96428.63;4928214;29;20027;-96
2021/12/07 09:14:56;;;;;;;12.90;3.40;;;;;;;5.10;68.67;96416.50;4921273;29;20040;-96
2021/12/07 09:17:22;;;;;;;11.93;3.70;;;;;;;4.40;71.88;96417.31;4914479;29;20047;-96
2021/12/07 09:19:48;;;;;;;16.98;3.75;;;;;;;6.58;64.84;96408.97;4929038;29;20036;-96
2021/12/07 09:22:14;;;;;;;16.13;3.42;;;;;;;4.68;68.65;96414.94;4909632;29;20059;-96
2021/12/07 09:24:46;;;;;;;17.33;3.45;;;;;;;4.37;70.87;96410.47;4927515;29;20055;-96
2021/12/07 09:27:14;;;;;;;14.57;3.40;;;;;;;4.81;70.47;96415.47;4912819;29;20036;-96
2021/12/07 09:29:39;;;;;;;11.82;3.15;;;;;;;4.95;71.28;96412.56;4909617;29;20126;-96
2021/12/07 09:32:08;;;;;;;15.18;3.00;;;;;;;6.96;62.94;96407.78;4909276;29;20012;-96
2021/12/07 09:34:37;;;;;;;13.85;3.13;;;;;;;5.53;67.63;96389.53;4981788;28;20042;-96
2021/12/07 09:37:07;;;;;;;20.23;3.83;;;;;;;5.13;69.42;96375.09;4987058;28;20019;-96
2021/12/07 09:39:44;;;;;;;14.43;3.30;;;;;;;4.66;70.88;96370.22;4982721;28;20022;-96
2021/12/07 09:42:09;;;;;;;15.55;3.22;;;;;;;5.16;70.70;96361.25;4985600;28;20023;-96
2021/12/07 09:44:36;;;;;;;11.90;2.95;;;;;;;6.05;68.26;96347.59;5003595;28;20589;-96
2021/12/07 09:47:03;;;;;;;15.00;3.08;;;;;;;5.84;67.81;96321.44;4981940;28;20038;-96
2021/12/07 09:49:31;;;;;;;12.95;3.22;;;;;;;5.39;67.98;96312.38;4995677;28;20407;-95
2021/12/07 09:51:57;;;;;;;14.40;2.60;;;;;;;5.40;69.95;96295.97;4975341;28;20170;-96
2021/12/07 09:54:25;;;;;;;13.23;2.95;;;;;;;6.45;64.45;96277.31;4994498;28;20069;-96
2021/12/07 09:56:52;;;;;;;17.15;3.15;;;;;;;6.43;65.00;96261.00;4975299;28;20043;-96
2021/12/07 09:59:18;;;;;;;12.43;2.83;;;;;;;5.55;67.07;96253.31;4977471;28;20035;-96
2021/12/07 10:01:44;;;;;;;13.38;2.97;;;;;;;6.35;67.44;96246.59;4990751;28;20029;-96
2021/12/07 10:04:13;;;;;;;10.25;2.45;;;;;;;5.20;67.41;96234.50;4988741;28;20022;-96
2021/12/07 10:06:38;;;;;;;9.48;2.17;;;;;;;5.66;67.57;96215.97;4977683;28;20057;-96
2021/12/07 10:09:05;;;;;;;12.85;2.33;;;;;;;7.09;62.50;96208.63;4978959;28;20042;-96
2021/12/07 10:11:31;;;;;;;12.60;3.15;;;;;;;6.00;65.28;96197.69;4987816;28;20039;-96
2021/12/07 10:13:57;;;;;;;14.15;2.42;;;;;;;6.31;64.63;96189.75;4994776;28;20039;-96
2021/12/07 10:16:24;;;;;;;14.80;2.33;;;;;;;6.28;65.19;96176.09;4981445;28;20026;-96
2021/12/07 10:19:00;;;;;;;17.42;2.17;;;;;;;7.82;60.44;96175.66;4989364;28;20109;-96
2021/12/07 10:21:38;;;;;;;10.75;2.38;;;;;;;8.49;58.87;96159.97;4983858;28;20014;-96
2021/12/07 10:24:09;;;;;;;13.88;1.95;;;;;;;6.60;63.09;96153.41;4991824;28;20058;-96
2021/12/07 10:26:47;;;;;;;12.45;2.25;;;;;;;5.42;67.70;96148.59;4979595;28;20030;-96
2021/12/07 10:29:16;;;;;;;11.88;1.90;;;;;;;6.70;64.34;96131.47;4981755;28;20419;-96
2021/12/07 10:31:51;;;;;;;12.32;1.98;;;;;;;5.66;65.53;96123.72;4983809;28;20140;-96
2021/12/07 10:34:25;;;;;;;14.90;1.83;;;;;;;6.00;66.86;96117.50;4978930;28;20062;-96
2021/12/07 10:37:13;;;;;;;9.95;1.75;;;;;;;6.31;64.66;96119.84;4996710;28;20042;-96
2021/12/07 10:39:52;;;;;;;8.30;1.77;;;;;;;6.26;65.67;96095.03;4995013;28;20450;-96
2021/12/07 10:42:27;;;;;;;12.02;2.17;;;;;;;6.66;63.34;96086.69;4995289;28;20039;-96
2021/12/07 10:44:54;;;;;;;9.68;1.90;;;;;;;6.43;64.70;96079.78;4978444;28;20047;-96
2021/12/07 10:47:38;;;;;;;13.27;1.60;;;;;;;9.07;56.59;96050.00;4975156;28;20034;-96
2021/12/07 10:50:09;;;;;;;10.10;1.80;;;;;;;6.96;61.26;96034.66;4987111;28;20019;-96
2021/12/07 10:52:59;;;;;;;11.20;1.75;;;;;;;7.34;59.97;96021.09;5007498;28;20038;-96
2021/12/07 10:55:43;;;;;;;10.48;1.33;;;;;;;8.48;57.17;96003.28;4995601;28;20065;-96
2021/12/07 10:58:13;;;;;;;8.15;1.65;;;;;;;6.15;65.57;96010.88;4995126;28;20026;-96
2021/12/07 11:00:46;;;;;;;11.90;1.80;;;;;;;6.51;65.53;95986.25;4996385;28;20090;-95
2021/12/07 11:03:25;;;;;;;10.85;1.85;;;;;;;8.07;61.23;95967.00;4985988;28;20037;-96
2021/12/07 11:05:54;;;;;;;10.35;1.60;;;;;;;8.49;60.50;95947.84;4977819;28;20038;-96
2021/12/07 11:09:00;;;;;;;11.38;1.80;;;;;;;6.58;65.15;95914.38;4991143;28;20062;-96
2021/12/07 11:11:40;;;;;;;;;;;;;;;;;;;;;
2021/12/07 11:14:12;;;;;;;12.85;1.92;;;;;;;6.43;68.30;95903.72;5038257;28;20056;-96
2021/12/07 11:16:45;;;;;;;8.98;1.63;;;;;;;6.02;69.26;95906.13;5005464;28;20053;-96
2021/12/07 11:19:23;;;;;;;15.13;1.73;;;;;;;6.14;70.83;95890.16;5029591;28;20072;-96
2021/12/07 11:21:50;;;;;;;7.70;1.73;;;;;;;6.56;68.43;95879.97;5010491;28;20029;-96
2021/12/07 11:24:18;;;;;;;9.57;1.98;;;;;;;6.56;66.29;95880.78;5019328;28;20494;-96
2021/12/07 11:30:08;;;;;;;10.95;1.70;;;;;;;6.77;69.44;95847.16;5031302;28;20069;-96
2021/12/07 11:32:35;;;;;;;9.70;1.65;;;;;;;8.54;63.33;95830.75;5173359;23;20155;-96
2021/12/07 11:35:15;;;;;;;20.23;2.38;;;;;;;8.54;61.96;95818.59;5012342;28;20029;-96
2021/12/07 11:37:56;;;;;;;16.73;2.75;;;;;;;8.73;60.30;95811.66;5030130;28;20176;-96
2021/12/07 11:40:35;;;;;;;12.88;1.80;;;;;;;7.95;63.34;95796.28;5030265;28;20037;-96
2021/12/07 11:43:01;;;;;;;10.43;2.10;;;;;;;8.45;63.38;95764.50;5019546;28;20009;-96
2021/12/07 11:45:45;;;;;;;9.82;1.90;;;;;;;8.83;62.24;95751.34;5030191;28;20026;-96
2021/12/07 11:48:38;;;;;;;12.68;2.50;;;;;;;8.18;65.34;95746.72;5026995;28;20030;-96
2021/12/07 11:51:22;;;;;;;13.80;1.90;;;;;;;7.74;64.18;95739.28;5046422;28;20033;-96
2021/12/07 12:00:36;;;;;;;8.98;2.05;;;;;;;9.57;61.16;95672.09;4979672;28;20110;-96
2021/12/07 12:05:41;;;;;;;13.90;2.10;;;;;;;9.33;62.71;95635.25;5020412;23;20070;-96
2021/12/07 12:08:19;;;;;;;12.77;2.15;;;;;;;8.79;63.97;95637.28;4970636;28;20037;-94
2021/12/07 12:10:49;;;;;;;11.63;1.98;;;;;;;8.83;63.95;95618.81;4979256;28;20081;-96
2021/12/07 12:13:53;;;;;;;;;;;;;;;;;;;;;
2021/12/07 12:16:34;;;;;;;13.88;2.95;;;;;;;9.63;67.33;95585.06;4959948;28;20045;-95
2021/12/07 12:19:37;;;;;;;6.78;1.55;;;;;;;7.45;69.12;95591.06;4967210;28;20042;-96
2021/12/07 12:23:00;;;;;;;16.40;2.47;;;;;;;8.01;69.50;95565.00;4968716;28;20042;-96
2021/12/07 12:26:11;;;;;;;;;;;;;;;;;;;;;
2021/12/07 12:28:40;;;;;;;14.75;2.30;;;;;;;7.51;70.70;95541.53;4979165;28;20053;-96
2021/12/07 12:31:08;;;;;;;12.38;2.28;;;;;;;8.46;68.39;95534.19;4971536;28;20057;-96
2021/12/07 12:33:56;;;;;;;15.38;2.30;;;;;;;8.14;69.19;95532.34;4974071;28;20046;-96
2021/12/07 12:36:25;;;;;;;16.65;2.60;;;;;;;8.78;67.08;95518.66;4974745;28;20069;-96
2021/12/07 12:39:06;;;;;;;10.27;2.33;;;;;;;8.44;67.36;95497.91;4970873;28;20106;-96
2021/12/07 12:41:31;;;;;;;10.73;2.20;;;;;;;8.80;66.50;95485.66;4957200;28;20042;-96
2021/12/07 12:44:06;;;;;;;9.02;1.92;;;;;;;9.52;64.73;95484.19;4979589;28;20034;-96
2021/12/07 12:46:34;;;;;;;12.40;2.17;;;;;;;7.92;65.42;95457.34;4989846;28;20042;-94
2021/12/07 12:49:10;;;;;;;15.52;3.15;;;;;;;10.27;64.04;95456.41;4977792;28;20044;-96
2021/12/07 12:51:50;;;;;;;9.63;2.05;;;;;;;9.15;64.79;95431.69;4986054;28;20041;-96
2021/12/07 12:54:30;;;;;;;10.15;2.33;;;;;;;7.91;69.56;95427.13;4966490;28;20504;-96
2021/12/07 12:57:16;;;;;;;14.80;2.58;;;;;;;7.51;71.91;95392.88;4969756;28;20129;-95
2021/12/07 12:59:54;;;;;;;12.20;2.50;;;;;;;7.64;73.35;95391.34;4974977;28;20022;-96
2021/12/07 13:02:20;;;;;;;12.35;2.55;;;;;;;7.66;73.72;95380.88;4971461;28;20046;-96
2021/12/07 13:05:30;;;;;;;;;;;;;;;;;;;;;
2021/12/07 13:08:14;;;;;;;10.57;1.98;;;;;;;9.05;69.64;95336.97;4965014;28;20764;-95
2021/12/07 13:11:01;;;;;;;13.65;2.15;;;;;;;7.46;73.45;95349.03;4967279;28;20230;-94
2021/12/07 13:13:39;;;;;;;12.05;2.35;;;;;;;6.98;74.51;95345.41;4972124;28;20026;-95
2021/12/07 13:16:16;;;;;;;12.30;2.42;;;;;;;7.57;75.22;95340.69;4962391;28;20042;-96
2021/12/07 13:18:44;;;;;;;19.15;2.95;;;;;;;7.85;73.81;95321.09;4972245;28;20030;-96
2021/12/07 13:21:37;;;;;;;10.50;2.75;;;;;;;8.26;71.02;95309.38;4973037;28;20040;-96
2021/12/07 13:27:28;;;;;;;11.00;2.42;;;;;;;9.28;68.89;95283.59;4982001;28;20740;-94
2021/12/07 13:30:22;;;;;;;16.73;3.00;;;;;;;8.63;68.40;95269.22;4985113;28;20581;-95
2021/12/07 13:33:12;;;;;;;13.80;2.75;;;;;;;8.28;73.06;95273.75;4978741;28;20039;-95
2021/12/07 13:35:47;;;;;;;14.00;3.20;;;;;;;8.09;72.31;95241.06;4987856;28;20084;-95
2021/12/07 13:38:55;;;;;;;10.50;2.72;;;;;;;8.32;71.42;95229.38;4958153;28;20031;-95
2021/12/07 13:41:38;;;;;;;15.27;3.35;;;;;;;8.18;72.50;95212.00;4966141;28;20046;-95
2021/12/07 13:44:23;;;;;;;13.55;3.10;;;;;;;8.63;71.75;95193.03;4966305;28;20038;-96
2021/12/07 13:47:00;;;;;;;12.45;3.45;;;;;;;9.66;65.79;95159.94;4966070;28;20785;-95
2021/12/07 13:50:10;;;;;;;13.02;3.20;;;;;;;11.92;65.32;95150.84;4967349;28;20030;-96
2021/12/07 13:52:41;;;;;;;13.00;2.83;;;;;;;10.34;62.84;95151.25;4956902;28;20093;-95
2021/12/07 13:55:11;;;;;;;11.15;3.00;;;;;;;9.83;64.17;95132.88;4972346;28;20042;-96
2021/12/07 13:57:45;;;;;;;17.00;3.70;;;;;;;10.26;65.46;95130.06;4967417;28;20069;-95
2021/12/07 14:00:20;;;;;;;12.50;3.65;;;;;;;9.43;66.60;95120.59;4970298;28;20024;-95
2021/12/07 14:03:19;;;;;;;10.38;3.22;;;;;;;8.83;69.82;95099.16;4958645;28;20058;-96
2021/12/07 14:06:09;;;;;;;10.15;3.08;;;;;;;9.33;69.89;95099.56;4974774;28;20043;-94
2021/12/07 14:08:45;;;;;;;13.82;3.83;;;;;;;9.80;66.00;95067.97;4971320;28;20078;-95
2021/12/07 14:11:38;;;;;;;11.90;3.95;;;;;;;9.77;66.57;95076.00;4988951;28;20173;-95
2021/12/07 14:14:21;;;;;;;9.40;3.30;;;;;;;9.90;65.83;95056.06;4982161;28;20176;-96
2021/12/07 14:16:55;;;;;;;10.95;3.80;;;;;;;8.78;69.96;95043.22;4988903;28;20061;-96
2021/12/07 14:19:33;;;;;;;11.27;3.25;;;;;;;7.91;73.48;95061.31;4989675;28;20030;-95
2021/12/07 14:22:11;;;;;;;13.00;3.75;;;;;;;8.68;71.38;95040.34;4984424;28;20041;-96
2021/12/07 14:25:02;;;;;;;11.38;3.50;;;;;;;8.27;73.27;95041.06;4989919;28;20068;-94
2021/12/07 14:27:52;;;;;;;14.48;3.85;;;;;;;8.32;72.69;95046.81;4967856;28;20026;-95
2021/12/07 14:30:18;;;;;;;10.10;3.92;;;;;;;9.60;69.38;95027.66;4987978;28;20035;-95
2021/12/07 14:33:11;;;;;;;18.02;5.20;;;;;;;9.13;71.13;95016.78;4954177;28;20037;-94
2021/12/07 14:35:53;;;;;;;14.23;4.07;;;;;;;7.99;75.05;95015.00;4970851;28;20041;-94